sensor_id;sensor_type;location;lat;lon;timestamp;P1;durP1;ratioP1;P2;durP2;ratioP2
60060;SDS011;45933;51.336;12.612;2023-02-11T00:01:21;35.17;;;19.87;;
60060;SDS011;45933;51.336;12.612;2023-02-11T00:03:49;40.20;;;21.40;;
60060;SDS011;45933;51.336;12.612;2023-02-11T00:06:15;37.33;;;21.03;;
60060;SDS011;45933;51.336;12.612;2023-02-11T00:08:40;34.40;;;19.00;;
60060;SDS011;45933;51.336;12.612;2023-02-11T00:11:06;42.30;;;22.63;;
60060;SDS011;45933;51.336;12.612;2023-02-11T00:13:32;36.47;;;20.03;;
60060;SDS011;45933;51.336;12.612;2023-02-11T00:15:57;38.03;;;20.60;;
60060;SDS011;45933;51.336;12.612;2023-02-11T00:18:23;37.67;;;21.70;;
60060;SDS011;45933;51.336;12.612;2023-02-11T00:20:48;37.90;;;22.40;;
60060;SDS011;45933;51.336;12.612;2023-02-11T00:23:14;36.87;;;20.37;;
60060;SDS011;45933;51.336;12.612;2023-02-11T00:25:40;42.90;;;22.47;;
60060;SDS011;45933;51.336;12.612;2023-02-11T00:28:07;38.33;;;20.90;;
60060;SDS011;45933;51.336;12.612;2023-02-11T00:30:33;35.97;;;20.67;;
60060;SDS011;45933;51.336;12.612;2023-02-11T00:32:59;37.10;;;20.17;;
60060;SDS011;45933;51.336;12.612;2023-02-11T00:35:25;38.43;;;21.60;;
60060;SDS011;45933;51.336;12.612;2023-02-11T00:37:54;35.67;;;20.70;;
60060;SDS011;45933;51.336;12.612;2023-02-11T00:40:19;36.20;;;19.97;;
60060;SDS011;45933;51.336;12.612;2023-02-11T00:42:45;36.40;;;19.90;;
60060;SDS011;45933;51.336;12.612;2023-02-11T00:45:10;34.37;;;20.47;;
60060;SDS011;45933;51.336;12.612;2023-02-11T00:47:36;33.60;;;20.17;;
60060;SDS011;45933;51.336;12.612;2023-02-11T00:50:02;37.10;;;20.67;;
60060;SDS011;45933;51.336;12.612;2023-02-11T00:52:34;35.30;;;20.20;;
60060;SDS011;45933;51.336;12.612;2023-02-11T00:54:59;35.83;;;19.97;;
60060;SDS011;45933;51.336;12.612;2023-02-11T00:57:27;36.30;;;19.43;;
60060;SDS011;45933;51.336;12.612;2023-02-11T00:59:59;32.93;;;18.70;;
60060;SDS011;45933;51.336;12.612;2023-02-11T01:02:24;37.90;;;20.77;;
60060;SDS011;45933;51.336;12.612;2023-02-11T01:04:49;32.27;;;18.57;;
60060;SDS011;45933;51.336;12.612;2023-02-11T01:07:15;34.50;;;19.73;;
60060;SDS011;45933;51.336;12.612;2023-02-11T01:09:40;35.93;;;19.83;;
60060;SDS011;45933;51.336;12.612;2023-02-11T01:12:05;34.33;;;18.70;;
60060;SDS011;45933;51.336;12.612;2023-02-11T01:14:31;33.70;;;19.50;;
60060;SDS011;45933;51.336;12.612;2023-02-11T01:16:56;37.00;;;20.63;;
60060;SDS011;45933;51.336;12.612;2023-02-11T01:19:21;34.27;;;20.57;;
60060;SDS011;45933;51.336;12.612;2023-02-11T01:21:47;32.37;;;19.23;;
60060;SDS011;45933;51.336;12.612;2023-02-11T01:24:12;32.43;;;19.83;;
60060;SDS011;45933;51.336;12.612;2023-02-11T01:26:37;36.37;;;19.73;;
60060;SDS011;45933;51.336;12.612;2023-02-11T01:29:03;40.43;;;21.10;;
60060;SDS011;45933;51.336;12.612;2023-02-11T01:31:29;38.93;;;21.13;;
60060;SDS011;45933;51.336;12.612;2023-02-11T01:33:55;34.23;;;19.87;;
60060;SDS011;45933;51.336;12.612;2023-02-11T01:36:23;37.50;;;21.37;;
60060;SDS011;45933;51.336;12.612;2023-02-11T01:38:49;33.07;;;19.90;;
60060;SDS011;45933;51.336;12.612;2023-02-11T01:41:14;37.30;;;20.47;;
60060;SDS011;45933;51.336;12.612;2023-02-11T01:43:41;39.10;;;21.07;;
60060;SDS011;45933;51.336;12.612;2023-02-11T01:48:58;37.33;;;19.60;;
60060;SDS011;45933;51.336;12.612;2023-02-11T01:51:26;33.83;;;20.13;;
60060;SDS011;45933;51.336;12.612;2023-02-11T01:53:56;35.67;;;19.53;;
60060;SDS011;45933;51.336;12.612;2023-02-11T01:56:42;33.53;;;19.43;;
60060;SDS011;45933;51.336;12.612;2023-02-11T01:59:31;38.60;;;21.03;;
60060;SDS011;45933;51.336;12.612;2023-02-11T02:02:07;33.57;;;19.03;;
60060;SDS011;45933;51.336;12.612;2023-02-11T02:04:45;35.27;;;20.23;;
60060;SDS011;45933;51.336;12.612;2023-02-11T02:07:33;34.17;;;20.17;;
60060;SDS011;45933;51.336;12.612;2023-02-11T02:10:07;33.03;;;19.90;;
60060;SDS011;45933;51.336;12.612;2023-02-11T02:12:36;35.43;;;20.23;;
60060;SDS011;45933;51.336;12.612;2023-02-11T02:15:22;34.53;;;20.93;;
60060;SDS011;45933;51.336;12.612;2023-02-11T02:28:57;35.27;;;21.33;;
60060;SDS011;45933;51.336;12.612;2023-02-11T02:34:28;37.43;;;21.03;;
60060;SDS011;45933;51.336;12.612;2023-02-11T02:37:07;34.53;;;20.10;;
60060;SDS011;45933;51.336;12.612;2023-02-11T02:39:38;32.97;;;20.10;;
60060;SDS011;45933;51.336;12.612;2023-02-11T02:42:04;36.50;;;21.37;;
60060;SDS011;45933;51.336;12.612;2023-02-11T02:44:30;34.53;;;21.17;;
60060;SDS011;45933;51.336;12.612;2023-02-11T02:46:56;35.07;;;21.20;;
60060;SDS011;45933;51.336;12.612;2023-02-11T02:49:21;32.17;;;20.13;;
60060;SDS011;45933;51.336;12.612;2023-02-11T02:51:57;36.37;;;21.30;;
60060;SDS011;45933;51.336;12.612;2023-02-11T02:57:32;34.20;;;20.67;;
60060;SDS011;45933;51.336;12.612;2023-02-11T03:03:33;37.17;;;22.10;;
60060;SDS011;45933;51.336;12.612;2023-02-11T03:06:33;34.80;;;20.97;;
60060;SDS011;45933;51.336;12.612;2023-02-11T03:09:15;36.47;;;20.80;;
60060;SDS011;45933;51.336;12.612;2023-02-11T03:11:48;32.53;;;20.00;;
60060;SDS011;45933;51.336;12.612;2023-02-11T03:14:14;35.43;;;20.40;;
60060;SDS011;45933;51.336;12.612;2023-02-11T03:16:43;31.80;;;19.60;;
60060;SDS011;45933;51.336;12.612;2023-02-11T03:21:38;34.77;;;20.97;;
60060;SDS011;45933;51.336;12.612;2023-02-11T03:24:06;34.23;;;21.17;;
60060;SDS011;45933;51.336;12.612;2023-02-11T03:26:37;36.37;;;21.87;;
60060;SDS011;45933;51.336;12.612;2023-02-11T03:29:09;35.27;;;20.13;;
60060;SDS011;45933;51.336;12.612;2023-02-11T03:31:44;33.67;;;20.97;;
60060;SDS011;45933;51.336;12.612;2023-02-11T03:34:22;36.67;;;21.70;;
60060;SDS011;45933;51.336;12.612;2023-02-11T03:36:59;37.23;;;21.43;;
60060;SDS011;45933;51.336;12.612;2023-02-11T03:39:31;33.20;;;20.80;;
60060;SDS011;45933;51.336;12.612;2023-02-11T03:42:00;39.20;;;21.40;;
60060;SDS011;45933;51.336;12.612;2023-02-11T03:44:33;33.97;;;20.87;;
60060;SDS011;45933;51.336;12.612;2023-02-11T03:47:02;35.03;;;20.90;;
60060;SDS011;45933;51.336;12.612;2023-02-11T03:49:32;36.23;;;21.70;;
60060;SDS011;45933;51.336;12.612;2023-02-11T03:52:00;40.30;;;21.63;;
60060;SDS011;45933;51.336;12.612;2023-02-11T03:54:28;38.10;;;21.57;;
60060;SDS011;45933;51.336;12.612;2023-02-11T03:56:58;37.30;;;20.93;;
60060;SDS011;45933;51.336;12.612;2023-02-11T03:59:26;34.77;;;20.30;;
60060;SDS011;45933;51.336;12.612;2023-02-11T04:01:51;36.13;;;21.40;;
60060;SDS011;45933;51.336;12.612;2023-02-11T04:04:17;35.37;;;20.83;;
60060;SDS011;45933;51.336;12.612;2023-02-11T04:06:43;36.63;;;21.37;;
60060;SDS011;45933;51.336;12.612;2023-02-11T04:09:08;33.53;;;20.57;;
60060;SDS011;45933;51.336;12.612;2023-02-11T04:11:34;35.13;;;20.27;;
60060;SDS011;45933;51.336;12.612;2023-02-11T04:14:00;33.53;;;19.93;;
60060;SDS011;45933;51.336;12.612;2023-02-11T04:16:25;36.93;;;20.47;;
60060;SDS011;45933;51.336;12.612;2023-02-11T04:18:51;36.60;;;21.30;;
60060;SDS011;45933;51.336;12.612;2023-02-11T04:21:16;32.67;;;20.03;;
60060;SDS011;45933;51.336;12.612;2023-02-11T04:23:41;36.63;;;20.77;;
60060;SDS011;45933;51.336;12.612;2023-02-11T04:26:06;34.63;;;20.70;;
60060;SDS011;45933;51.336;12.612;2023-02-11T04:28:32;33.47;;;20.27;;
60060;SDS011;45933;51.336;12.612;2023-02-11T04:30:58;34.87;;;20.23;;
60060;SDS011;45933;51.336;12.612;2023-02-11T04:33:24;32.80;;;19.63;;
60060;SDS011;45933;51.336;12.612;2023-02-11T04:35:49;37.27;;;20.70;;
60060;SDS011;45933;51.336;12.612;2023-02-11T04:38:14;30.57;;;19.73;;
60060;SDS011;45933;51.336;12.612;2023-02-11T04:40:40;36.47;;;20.87;;
60060;SDS011;45933;51.336;12.612;2023-02-11T04:43:05;33.20;;;19.93;;
60060;SDS011;45933;51.336;12.612;2023-02-11T04:45:31;31.40;;;19.83;;
60060;SDS011;45933;51.336;12.612;2023-02-11T04:47:57;33.63;;;20.50;;
60060;SDS011;45933;51.336;12.612;2023-02-11T04:50:22;36.17;;;20.47;;
60060;SDS011;45933;51.336;12.612;2023-02-11T04:52:47;33.53;;;20.40;;
60060;SDS011;45933;51.336;12.612;2023-02-11T04:55:12;34.63;;;19.87;;
60060;SDS011;45933;51.336;12.612;2023-02-11T04:57:38;33.67;;;19.03;;
60060;SDS011;45933;51.336;12.612;2023-02-11T05:00:04;33.67;;;20.67;;
60060;SDS011;45933;51.336;12.612;2023-02-11T05:02:30;34.47;;;19.10;;
60060;SDS011;45933;51.336;12.612;2023-02-11T05:04:55;33.13;;;19.07;;
60060;SDS011;45933;51.336;12.612;2023-02-11T05:07:21;31.63;;;19.03;;
60060;SDS011;45933;51.336;12.612;2023-02-11T05:09:46;33.43;;;19.70;;
60060;SDS011;45933;51.336;12.612;2023-02-11T05:12:11;34.60;;;20.27;;
60060;SDS011;45933;51.336;12.612;2023-02-11T05:14:37;34.10;;;19.77;;
60060;SDS011;45933;51.336;12.612;2023-02-11T05:17:02;37.17;;;20.27;;
60060;SDS011;45933;51.336;12.612;2023-02-11T05:19:27;33.40;;;19.47;;
60060;SDS011;45933;51.336;12.612;2023-02-11T05:21:52;33.20;;;20.07;;
60060;SDS011;45933;51.336;12.612;2023-02-11T05:24:18;33.03;;;20.30;;
60060;SDS011;45933;51.336;12.612;2023-02-11T05:26:43;33.80;;;20.40;;
60060;SDS011;45933;51.336;12.612;2023-02-11T05:29:09;32.33;;;19.77;;
60060;SDS011;45933;51.336;12.612;2023-02-11T05:31:34;35.73;;;21.27;;
60060;SDS011;45933;51.336;12.612;2023-02-11T05:33:59;31.47;;;19.87;;
60060;SDS011;45933;51.336;12.612;2023-02-11T05:36:27;33.43;;;20.93;;
60060;SDS011;45933;51.336;12.612;2023-02-11T05:38:53;34.27;;;19.70;;
60060;SDS011;45933;51.336;12.612;2023-02-11T05:41:18;33.53;;;19.53;;
60060;SDS011;45933;51.336;12.612;2023-02-11T05:43:43;34.30;;;20.97;;
60060;SDS011;45933;51.336;12.612;2023-02-11T05:46:08;32.23;;;19.60;;
60060;SDS011;45933;51.336;12.612;2023-02-11T05:48:34;34.60;;;19.33;;
60060;SDS011;45933;51.336;12.612;2023-02-11T05:50:59;36.60;;;19.57;;
60060;SDS011;45933;51.336;12.612;2023-02-11T05:53:24;37.50;;;22.50;;
60060;SDS011;45933;51.336;12.612;2023-02-11T05:55:50;34.60;;;20.30;;
60060;SDS011;45933;51.336;12.612;2023-02-11T05:58:15;34.20;;;19.23;;
60060;SDS011;45933;51.336;12.612;2023-02-11T06:00:40;34.33;;;20.57;;
60060;SDS011;45933;51.336;12.612;2023-02-11T06:03:06;34.83;;;20.50;;
60060;SDS011;45933;51.336;12.612;2023-02-11T06:05:32;45.60;;;28.43;;
60060;SDS011;45933;51.336;12.612;2023-02-11T06:07:57;35.90;;;21.80;;
60060;SDS011;45933;51.336;12.612;2023-02-11T06:10:23;36.53;;;21.43;;
60060;SDS011;45933;51.336;12.612;2023-02-11T06:12:48;35.90;;;20.73;;
60060;SDS011;45933;51.336;12.612;2023-02-11T06:15:14;35.33;;;20.13;;
60060;SDS011;45933;51.336;12.612;2023-02-11T06:17:39;38.73;;;21.97;;
60060;SDS011;45933;51.336;12.612;2023-02-11T06:20:05;35.20;;;21.30;;
60060;SDS011;45933;51.336;12.612;2023-02-11T06:22:32;37.50;;;21.73;;
60060;SDS011;45933;51.336;12.612;2023-02-11T06:24:58;36.93;;;21.60;;
60060;SDS011;45933;51.336;12.612;2023-02-11T06:27:23;39.47;;;21.73;;
60060;SDS011;45933;51.336;12.612;2023-02-11T06:29:48;38.30;;;22.07;;
60060;SDS011;45933;51.336;12.612;2023-02-11T06:32:16;40.80;;;22.57;;
60060;SDS011;45933;51.336;12.612;2023-02-11T06:34:41;35.60;;;21.03;;
60060;SDS011;45933;51.336;12.612;2023-02-11T06:37:06;45.87;;;27.60;;
60060;SDS011;45933;51.336;12.612;2023-02-11T06:39:32;55.50;;;31.77;;
60060;SDS011;45933;51.336;12.612;2023-02-11T06:41:57;105.80;;;51.27;;
60060;SDS011;45933;51.336;12.612;2023-02-11T06:44:22;58.63;;;31.23;;
60060;SDS011;45933;51.336;12.612;2023-02-11T06:46:48;48.63;;;26.47;;
60060;SDS011;45933;51.336;12.612;2023-02-11T06:49:13;44.73;;;26.30;;
60060;SDS011;45933;51.336;12.612;2023-02-11T06:51:38;50.00;;;27.23;;
60060;SDS011;45933;51.336;12.612;2023-02-11T06:54:04;43.77;;;25.73;;
60060;SDS011;45933;51.336;12.612;2023-02-11T06:56:30;44.73;;;26.43;;
60060;SDS011;45933;51.336;12.612;2023-02-11T06:58:56;43.70;;;24.73;;
60060;SDS011;45933;51.336;12.612;2023-02-11T07:01:22;46.47;;;24.80;;
60060;SDS011;45933;51.336;12.612;2023-02-11T07:03:49;39.60;;;23.77;;
60060;SDS011;45933;51.336;12.612;2023-02-11T07:06:19;47.67;;;25.77;;
60060;SDS011;45933;51.336;12.612;2023-02-11T07:08:46;41.43;;;24.90;;
60060;SDS011;45933;51.336;12.612;2023-02-11T07:11:15;45.57;;;25.17;;
60060;SDS011;45933;51.336;12.612;2023-02-11T07:13:43;43.77;;;24.17;;
60060;SDS011;45933;51.336;12.612;2023-02-11T07:16:10;67.30;;;36.30;;
60060;SDS011;45933;51.336;12.612;2023-02-11T07:18:37;82.77;;;42.47;;
60060;SDS011;45933;51.336;12.612;2023-02-11T07:21:04;115.93;;;58.43;;
60060;SDS011;45933;51.336;12.612;2023-02-11T07:23:30;93.33;;;50.20;;
60060;SDS011;45933;51.336;12.612;2023-02-11T07:25:55;76.40;;;43.00;;
60060;SDS011;45933;51.336;12.612;2023-02-11T07:28:21;89.17;;;50.07;;
60060;SDS011;45933;51.336;12.612;2023-02-11T07:30:46;55.43;;;33.43;;
60060;SDS011;45933;51.336;12.612;2023-02-11T07:33:11;52.80;;;29.73;;
60060;SDS011;45933;51.336;12.612;2023-02-11T07:35:37;45.77;;;26.60;;
60060;SDS011;45933;51.336;12.612;2023-02-11T07:38:02;47.00;;;26.87;;
60060;SDS011;45933;51.336;12.612;2023-02-11T07:40:28;46.23;;;25.47;;
60060;SDS011;45933;51.336;12.612;2023-02-11T07:42:55;48.33;;;26.20;;
60060;SDS011;45933;51.336;12.612;2023-02-11T07:45:20;45.30;;;25.17;;
60060;SDS011;45933;51.336;12.612;2023-02-11T07:47:46;45.87;;;25.83;;
60060;SDS011;45933;51.336;12.612;2023-02-11T07:50:11;46.20;;;26.17;;
60060;SDS011;45933;51.336;12.612;2023-02-11T07:52:36;48.67;;;26.00;;
60060;SDS011;45933;51.336;12.612;2023-02-11T07:55:01;47.93;;;26.67;;
60060;SDS011;45933;51.336;12.612;2023-02-11T07:57:27;44.40;;;25.83;;
60060;SDS011;45933;51.336;12.612;2023-02-11T07:59:52;45.53;;;27.07;;
60060;SDS011;45933;51.336;12.612;2023-02-11T08:02:18;50.77;;;28.43;;
60060;SDS011;45933;51.336;12.612;2023-02-11T08:04:44;45.10;;;25.97;;
60060;SDS011;45933;51.336;12.612;2023-02-11T08:07:13;43.27;;;26.43;;
60060;SDS011;45933;51.336;12.612;2023-02-11T08:09:39;45.57;;;26.47;;
60060;SDS011;45933;51.336;12.612;2023-02-11T08:12:04;42.43;;;25.03;;
60060;SDS011;45933;51.336;12.612;2023-02-11T08:14:30;41.17;;;24.63;;
60060;SDS011;45933;51.336;12.612;2023-02-11T08:16:56;41.33;;;24.70;;
60060;SDS011;45933;51.336;12.612;2023-02-11T08:19:22;46.27;;;26.17;;
60060;SDS011;45933;51.336;12.612;2023-02-11T08:21:47;45.20;;;26.17;;
60060;SDS011;45933;51.336;12.612;2023-02-11T08:24:12;44.50;;;26.47;;
60060;SDS011;45933;51.336;12.612;2023-02-11T08:26:38;45.17;;;24.47;;
60060;SDS011;45933;51.336;12.612;2023-02-11T08:29:05;42.93;;;25.77;;
60060;SDS011;45933;51.336;12.612;2023-02-11T08:31:34;44.77;;;26.43;;
60060;SDS011;45933;51.336;12.612;2023-02-11T08:34:01;41.27;;;25.20;;
60060;SDS011;45933;51.336;12.612;2023-02-11T08:36:27;44.87;;;26.67;;
60060;SDS011;45933;51.336;12.612;2023-02-11T08:38:54;47.90;;;27.10;;
60060;SDS011;45933;51.336;12.612;2023-02-11T08:41:21;43.90;;;25.13;;
60060;SDS011;45933;51.336;12.612;2023-02-11T08:43:46;47.03;;;24.97;;
60060;SDS011;45933;51.336;12.612;2023-02-11T08:46:14;50.40;;;29.40;;
60060;SDS011;45933;51.336;12.612;2023-02-11T08:48:42;52.93;;;30.53;;
60060;SDS011;45933;51.336;12.612;2023-02-11T08:51:09;56.57;;;31.93;;
60060;SDS011;45933;51.336;12.612;2023-02-11T08:53:37;47.03;;;27.00;;
60060;SDS011;45933;51.336;12.612;2023-02-11T08:56:02;48.43;;;29.87;;
60060;SDS011;45933;51.336;12.612;2023-02-11T08:58:28;48.63;;;30.17;;
60060;SDS011;45933;51.336;12.612;2023-02-11T09:00:53;42.57;;;26.43;;
60060;SDS011;45933;51.336;12.612;2023-02-11T09:03:21;42.70;;;25.13;;
60060;SDS011;45933;51.336;12.612;2023-02-11T09:05:49;42.23;;;26.00;;
60060;SDS011;45933;51.336;12.612;2023-02-11T09:08:17;43.63;;;25.60;;
60060;SDS011;45933;51.336;12.612;2023-02-11T09:10:43;41.47;;;25.97;;
60060;SDS011;45933;51.336;12.612;2023-02-11T09:13:08;44.77;;;25.33;;
60060;SDS011;45933;51.336;12.612;2023-02-11T09:15:34;40.63;;;24.97;;
60060;SDS011;45933;51.336;12.612;2023-02-11T09:17:59;42.37;;;25.20;;
60060;SDS011;45933;51.336;12.612;2023-02-11T09:20:28;38.70;;;24.53;;
60060;SDS011;45933;51.336;12.612;2023-02-11T09:22:54;41.87;;;24.90;;
60060;SDS011;45933;51.336;12.612;2023-02-11T09:25:21;39.03;;;23.90;;
60060;SDS011;45933;51.336;12.612;2023-02-11T09:27:46;43.80;;;25.00;;
60060;SDS011;45933;51.336;12.612;2023-02-11T09:30:14;40.03;;;23.77;;
60060;SDS011;45933;51.336;12.612;2023-02-11T09:32:40;44.50;;;26.87;;
60060;SDS011;45933;51.336;12.612;2023-02-11T09:35:05;37.83;;;23.97;;
60060;SDS011;45933;51.336;12.612;2023-02-11T09:37:31;41.27;;;25.63;;
60060;SDS011;45933;51.336;12.612;2023-02-11T09:39:56;39.60;;;24.73;;
60060;SDS011;45933;51.336;12.612;2023-02-11T09:42:36;41.50;;;25.33;;
60060;SDS011;45933;51.336;12.612;2023-02-11T09:45:12;42.67;;;25.03;;
60060;SDS011;45933;51.336;12.612;2023-02-11T09:48:37;38.03;;;24.00;;
60060;SDS011;45933;51.336;12.612;2023-02-11T09:50:41;44.07;;;25.70;;
60060;SDS011;45933;51.336;12.612;2023-02-11T09:53:44;38.43;;;23.63;;
60060;SDS011;45933;51.336;12.612;2023-02-11T09:56:09;38.27;;;23.60;;
60060;SDS011;45933;51.336;12.612;2023-02-11T09:58:39;42.90;;;25.00;;
60060;SDS011;45933;51.336;12.612;2023-02-11T10:14:44;41.37;;;25.30;;
60060;SDS011;45933;51.336;12.612;2023-02-11T10:17:25;41.03;;;24.67;;
60060;SDS011;45933;51.336;12.612;2023-02-11T10:20:19;43.60;;;25.33;;
60060;SDS011;45933;51.336;12.612;2023-02-11T10:23:09;44.27;;;24.73;;
60060;SDS011;45933;51.336;12.612;2023-02-11T10:25:51;41.33;;;25.10;;
60060;SDS011;45933;51.336;12.612;2023-02-11T10:28:20;39.90;;;24.53;;
60060;SDS011;45933;51.336;12.612;2023-02-11T10:33:33;43.17;;;27.63;;
60060;SDS011;45933;51.336;12.612;2023-02-11T10:36:05;39.07;;;23.90;;
60060;SDS011;45933;51.336;12.612;2023-02-11T10:38:31;38.53;;;23.90;;
60060;SDS011;45933;51.336;12.612;2023-02-11T10:40:57;38.57;;;24.03;;
60060;SDS011;45933;51.336;12.612;2023-02-11T10:43:26;38.53;;;23.33;;
60060;SDS011;45933;51.336;12.612;2023-02-11T10:45:54;37.17;;;23.23;;
60060;SDS011;45933;51.336;12.612;2023-02-11T10:48:38;37.87;;;22.77;;
60060;SDS011;45933;51.336;12.612;2023-02-11T10:53:37;38.77;;;23.17;;
60060;SDS011;45933;51.336;12.612;2023-02-11T10:56:03;37.60;;;23.23;;
60060;SDS011;45933;51.336;12.612;2023-02-11T10:58:30;41.70;;;25.13;;
60060;SDS011;45933;51.336;12.612;2023-02-11T11:01:01;41.50;;;25.00;;
60060;SDS011;45933;51.336;12.612;2023-02-11T11:03:28;37.30;;;23.33;;
60060;SDS011;45933;51.336;12.612;2023-02-11T11:05:59;38.97;;;23.70;;
60060;SDS011;45933;51.336;12.612;2023-02-11T11:08:39;40.57;;;25.97;;
60060;SDS011;45933;51.336;12.612;2023-02-11T11:11:14;41.30;;;23.60;;
60060;SDS011;45933;51.336;12.612;2023-02-11T11:13:53;35.17;;;22.47;;
60060;SDS011;45933;51.336;12.612;2023-02-11T11:16:23;39.23;;;23.67;;
60060;SDS011;45933;51.336;12.612;2023-02-11T11:21:49;37.83;;;23.13;;
60060;SDS011;45933;51.336;12.612;2023-02-11T11:24:17;38.00;;;24.77;;
60060;SDS011;45933;51.336;12.612;2023-02-11T11:26:47;36.73;;;23.10;;
60060;SDS011;45933;51.336;12.612;2023-02-11T11:29:15;37.43;;;24.17;;
60060;SDS011;45933;51.336;12.612;2023-02-11T11:32:05;37.23;;;23.83;;
60060;SDS011;45933;51.336;12.612;2023-02-11T11:34:42;39.33;;;23.77;;
60060;SDS011;45933;51.336;12.612;2023-02-11T11:37:33;38.43;;;23.67;;
60060;SDS011;45933;51.336;12.612;2023-02-11T11:42:37;37.13;;;22.90;;
60060;SDS011;45933;51.336;12.612;2023-02-11T11:47:54;38.83;;;24.83;;
60060;SDS011;45933;51.336;12.612;2023-02-11T11:50:44;42.43;;;27.23;;
60060;SDS011;45933;51.336;12.612;2023-02-11T11:53:15;37.53;;;24.30;;
60060;SDS011;45933;51.336;12.612;2023-02-11T11:55:48;33.50;;;23.13;;
60060;SDS011;45933;51.336;12.612;2023-02-11T11:58:20;38.13;;;24.03;;
60060;SDS011;45933;51.336;12.612;2023-02-11T12:06:36;33.67;;;21.70;;
60060;SDS011;45933;51.336;12.612;2023-02-11T12:18:01;36.47;;;22.13;;
60060;SDS011;45933;51.336;12.612;2023-02-11T12:20:38;35.93;;;22.93;;
60060;SDS011;45933;51.336;12.612;2023-02-11T12:23:23;33.30;;;22.97;;
60060;SDS011;45933;51.336;12.612;2023-02-11T12:26:17;38.43;;;22.70;;
60060;SDS011;45933;51.336;12.612;2023-02-11T12:28:55;38.23;;;23.07;;
60060;SDS011;45933;51.336;12.612;2023-02-11T12:31:48;36.43;;;23.03;;
60060;SDS011;45933;51.336;12.612;2023-02-11T12:37:19;33.43;;;21.90;;
60060;SDS011;45933;51.336;12.612;2023-02-11T12:39:59;35.47;;;22.63;;
60060;SDS011;45933;51.336;12.612;2023-02-11T12:45:40;34.67;;;22.20;;
60060;SDS011;45933;51.336;12.612;2023-02-11T12:48:26;34.70;;;21.57;;
60060;SDS011;45933;51.336;12.612;2023-02-11T12:54:11;31.87;;;20.93;;
60060;SDS011;45933;51.336;12.612;2023-02-11T12:56:59;36.37;;;21.97;;
60060;SDS011;45933;51.336;12.612;2023-02-11T13:02:30;36.30;;;23.20;;
60060;SDS011;45933;51.336;12.612;2023-02-11T13:05:18;34.30;;;22.23;;
60060;SDS011;45933;51.336;12.612;2023-02-11T13:07:49;33.83;;;21.87;;
60060;SDS011;45933;51.336;12.612;2023-02-11T13:12:52;40.43;;;25.47;;
60060;SDS011;45933;51.336;12.612;2023-02-11T13:15:37;37.17;;;24.03;;
60060;SDS011;45933;51.336;12.612;2023-02-11T13:20:50;35.43;;;22.97;;
60060;SDS011;45933;51.336;12.612;2023-02-11T13:23:45;38.97;;;24.30;;
60060;SDS011;45933;51.336;12.612;2023-02-11T13:32:08;31.20;;;21.17;;
60060;SDS011;45933;51.336;12.612;2023-02-11T13:42:44;36.13;;;21.50;;
60060;SDS011;45933;51.336;12.612;2023-02-11T13:48:07;35.93;;;21.97;;
60060;SDS011;45933;51.336;12.612;2023-02-11T13:50:45;35.20;;;22.10;;
60060;SDS011;45933;51.336;12.612;2023-02-11T13:53:13;36.13;;;21.97;;
60060;SDS011;45933;51.336;12.612;2023-02-11T13:55:41;36.50;;;22.47;;
60060;SDS011;45933;51.336;12.612;2023-02-11T14:14:11;36.33;;;22.13;;
60060;SDS011;45933;51.336;12.612;2023-02-11T14:19:33;32.33;;;21.00;;
60060;SDS011;45933;51.336;12.612;2023-02-11T14:22:03;33.23;;;20.23;;
60060;SDS011;45933;51.336;12.612;2023-02-11T14:30:21;32.13;;;20.07;;
60060;SDS011;45933;51.336;12.612;2023-02-11T14:33:15;33.83;;;20.87;;
60060;SDS011;45933;51.336;12.612;2023-02-11T14:36:01;38.53;;;23.37;;
60060;SDS011;45933;51.336;12.612;2023-02-11T14:41:37;40.27;;;24.53;;
60060;SDS011;45933;51.336;12.612;2023-02-11T14:44:05;36.60;;;21.90;;
60060;SDS011;45933;51.336;12.612;2023-02-11T14:46:40;34.90;;;22.23;;
60060;SDS011;45933;51.336;12.612;2023-02-11T14:49:17;29.07;;;19.47;;
60060;SDS011;45933;51.336;12.612;2023-02-11T14:51:56;32.33;;;20.53;;
60060;SDS011;45933;51.336;12.612;2023-02-11T14:54:27;31.17;;;19.73;;
60060;SDS011;45933;51.336;12.612;2023-02-11T14:57:13;32.50;;;21.43;;
60060;SDS011;45933;51.336;12.612;2023-02-11T15:00:03;32.43;;;21.27;;
60060;SDS011;45933;51.336;12.612;2023-02-11T15:02:41;33.20;;;20.67;;
60060;SDS011;45933;51.336;12.612;2023-02-11T15:05:18;35.27;;;21.40;;
60060;SDS011;45933;51.336;12.612;2023-02-11T15:07:50;33.07;;;21.00;;
60060;SDS011;45933;51.336;12.612;2023-02-11T15:10:27;40.03;;;25.40;;
60060;SDS011;45933;51.336;12.612;2023-02-11T15:12:57;45.97;;;27.20;;
60060;SDS011;45933;51.336;12.612;2023-02-11T15:15:24;48.00;;;28.00;;
60060;SDS011;45933;51.336;12.612;2023-02-11T15:17:50;45.17;;;26.53;;
60060;SDS011;45933;51.336;12.612;2023-02-11T15:20:21;36.20;;;22.53;;
60060;SDS011;45933;51.336;12.612;2023-02-11T15:22:54;32.83;;;20.73;;
60060;SDS011;45933;51.336;12.612;2023-02-11T15:25:22;31.70;;;20.60;;
60060;SDS011;45933;51.336;12.612;2023-02-11T15:27:52;34.47;;;20.67;;
60060;SDS011;45933;51.336;12.612;2023-02-11T15:32:46;31.60;;;19.83;;
60060;SDS011;45933;51.336;12.612;2023-02-11T15:35:12;31.20;;;19.90;;
60060;SDS011;45933;51.336;12.612;2023-02-11T15:37:38;32.30;;;20.23;;
60060;SDS011;45933;51.336;12.612;2023-02-11T15:40:13;32.33;;;20.73;;
60060;SDS011;45933;51.336;12.612;2023-02-11T15:42:51;34.07;;;20.37;;
60060;SDS011;45933;51.336;12.612;2023-02-11T15:50:33;31.33;;;20.17;;
60060;SDS011;45933;51.336;12.612;2023-02-11T15:53:03;31.17;;;19.63;;
60060;SDS011;45933;51.336;12.612;2023-02-11T15:55:50;32.87;;;19.07;;
60060;SDS011;45933;51.336;12.612;2023-02-11T15:58:22;30.00;;;18.53;;
60060;SDS011;45933;51.336;12.612;2023-02-11T16:00:48;30.83;;;18.43;;
60060;SDS011;45933;51.336;12.612;2023-02-11T16:03:22;32.00;;;19.10;;
60060;SDS011;45933;51.336;12.612;2023-02-11T16:05:51;28.30;;;18.57;;
60060;SDS011;45933;51.336;12.612;2023-02-11T16:08:20;27.33;;;17.40;;
60060;SDS011;45933;51.336;12.612;2023-02-11T16:10:54;30.57;;;17.37;;
60060;SDS011;45933;51.336;12.612;2023-02-11T16:13:22;27.27;;;17.13;;
60060;SDS011;45933;51.336;12.612;2023-02-11T16:15:49;27.07;;;17.70;;
60060;SDS011;45933;51.336;12.612;2023-02-11T16:18:36;25.90;;;16.50;;
60060;SDS011;45933;51.336;12.612;2023-02-11T16:21:03;26.90;;;17.43;;
60060;SDS011;45933;51.336;12.612;2023-02-11T16:23:32;28.40;;;17.63;;
60060;SDS011;45933;51.336;12.612;2023-02-11T16:26:04;28.33;;;16.97;;
60060;SDS011;45933;51.336;12.612;2023-02-11T16:28:35;25.27;;;16.50;;
60060;SDS011;45933;51.336;12.612;2023-02-11T16:31:01;27.90;;;17.63;;
60060;SDS011;45933;51.336;12.612;2023-02-11T16:33:27;27.67;;;17.37;;
60060;SDS011;45933;51.336;12.612;2023-02-11T16:35:52;26.60;;;17.60;;
60060;SDS011;45933;51.336;12.612;2023-02-11T16:38:18;31.83;;;19.00;;
60060;SDS011;45933;51.336;12.612;2023-02-11T16:40:43;25.97;;;17.17;;